Time;durP1;ratioP1;P1;durP2;ratioP2;P2;SDS_P1;SDS_P2;PMS_P1;PMS_P2;Temp;Humidity;BMP_temperature;BMP_pressure;BME280_temperature;BME280_humidity;BME280_pressure;Samples;Min_cycle;Max_cycle;Signal;HPM_P1;HPM_P2
2023/10/27 00:01:47;;;;;;;36.08;21.00;;;11.60;99.90;;;;;;5022332;28;20042;-83
2023/10/27 00:04:13;;;;;;;38.70;22.08;;;11.60;99.90;;;;;;5022351;28;20033;-83
2023/10/27 00:06:39;;;;;;;33.72;20.17;;;11.60;99.90;;;;;;5021564;28;20061;-83
2023/10/27 00:09:04;;;;;;;35.88;20.52;;;11.60;99.90;;;;;;5022103;28;20033;-83
2023/10/27 00:11:30;;;;;;;37.58;22.30;;;11.70;99.90;;;;;;5021658;28;20397;-83
2023/10/27 00:13:56;;;;;;;34.30;20.70;;;11.60;99.90;;;;;;5021835;28;20446;-83
2023/10/27 00:16:22;;;;;;;32.67;20.85;;;11.70;99.90;;;;;;5022154;28;20022;-83
2023/10/27 00:18:47;;;;;;;40.05;23.23;;;11.70;99.90;;;;;;5021356;28;20029;-83
2023/10/27 00:21:13;;;;;;;38.20;20.77;;;11.70;99.90;;;;;;5022474;28;20115;-82
2023/10/27 00:23:39;;;;;;;37.08;21.10;;;11.70;99.90;;;;;;5021565;28;20401;-83
2023/10/27 00:26:05;;;;;;;37.03;20.67;;;11.70;99.90;;;;;;5005325;28;20033;-83
2023/10/27 00:28:31;;;;;;;35.42;20.70;;;11.70;99.90;;;;;;5021180;28;20014;-83
2023/10/27 00:31:00;;;;;;;39.90;21.55;;;11.70;99.90;;;;;;5021843;28;20037;-83
2023/10/27 00:33:26;;;;;;;40.95;22.80;;;11.70;99.90;;;;;;5021305;28;20022;-83
2023/10/27 00:35:52;;;;;;;35.08;21.30;;;11.70;99.90;;;;;;5021585;28;20090;-83
2023/10/27 00:38:19;;;;;;;42.65;22.95;;;11.70;99.90;;;;;;5022057;28;20030;-83
2023/10/27 00:40:45;;;;;;;38.95;21.88;;;11.70;99.90;;;;;;5020811;28;20046;-83
2023/10/27 00:43:17;;;;;;;37.42;22.17;;;11.70;99.90;;;;;;5021611;28;20034;-83
2023/10/27 00:45:50;;;;;;;42.22;22.35;;;11.80;99.90;;;;;;5021077;28;20044;-82
2023/10/27 00:48:18;;;;;;;40.85;21.88;;;11.70;99.90;;;;;;5022710;28;20471;-84
2023/10/27 00:50:44;;;;;;;41.45;21.92;;;11.80;99.90;;;;;;5021608;28;20021;-83
2023/10/27 00:53:11;;;;;;;43.05;23.60;;;11.80;99.90;;;;;;5020923;28;20018;-82
2023/10/27 00:55:39;;;;;;;41.33;22.63;;;11.80;99.90;;;;;;5021374;28;20042;-83
2023/10/27 00:58:08;;;;;;;44.10;23.10;;;11.80;99.90;;;;;;5004670;28;20055;-84
2023/10/27 01:00:35;;;;;;;41.97;22.52;;;11.80;99.90;;;;;;5020748;28;20029;-83
2023/10/27 01:03:00;;;;;;;47.45;24.30;;;11.80;99.90;;;;;;5020265;28;20026;-83
2023/10/27 01:05:26;;;;;;;45.03;24.40;;;11.80;99.90;;;;;;5021105;28;20037;-83
2023/10/27 01:07:53;;;;;;;43.55;22.67;;;11.80;99.90;;;;;;5022692;28;20030;-83
2023/10/27 01:10:19;;;;;;;43.83;23.65;;;11.70;99.90;;;;;;5021253;28;20044;-83
2023/10/27 01:12:47;;;;;;;43.65;23.58;;;11.80;99.90;;;;;;5020944;28;20033;-83
2023/10/27 01:15:13;;;;;;;43.38;25.45;;;11.80;99.90;;;;;;5021764;28;20021;-84
2023/10/27 01:17:39;;;;;;;47.17;25.38;;;11.70;99.90;;;;;;5020725;28;20062;-83
2023/10/27 01:20:06;;;;;;;42.38;24.23;;;11.80;99.90;;;;;;5020343;28;20026;-84
2023/10/27 01:22:33;;;;;;;40.92;23.35;;;11.80;99.90;;;;;;5004264;28;20030;-84
2023/10/27 01:24:59;;;;;;;43.78;24.27;;;11.80;99.90;;;;;;5020949;28;20109;-84
2023/10/27 01:27:25;;;;;;;46.75;26.45;;;11.80;99.90;;;;;;5020731;28;20030;-84
2023/10/27 01:29:51;;;;;;;39.88;23.60;;;11.80;99.90;;;;;;5021287;28;20045;-84
2023/10/27 01:32:17;;;;;;;42.10;23.52;;;11.80;99.90;;;;;;5020032;28;20092;-83
2023/10/27 01:34:42;;;;;;;42.47;23.73;;;11.80;99.90;;;;;;5004458;28;20038;-84
2023/10/27 01:37:08;;;;;;;43.80;23.45;;;11.80;99.90;;;;;;5020204;28;20022;-84
2023/10/27 01:39:34;;;;;;;44.67;25.00;;;11.80;99.90;;;;;;5004583;28;20101;-84
2023/10/27 01:42:00;;;;;;;42.05;24.60;;;11.80;99.90;;;;;;5020469;28;20097;-84
2023/10/27 01:44:26;;;;;;;43.22;24.15;;;11.80;99.90;;;;;;5022064;28;20026;-84
2023/10/27 01:46:52;;;;;;;43.33;24.42;;;11.90;99.90;;;;;;5020498;28;20028;-84
2023/10/27 01:49:18;;;;;;;45.58;24.48;;;11.80;99.90;;;;;;5021649;28;20049;-84
2023/10/27 01:51:43;;;;;;;41.28;22.65;;;11.90;99.90;;;;;;5020411;28;20594;-84
2023/10/27 01:54:09;;;;;;;40.85;22.58;;;11.80;99.90;;;;;;5019903;28;20488;-84
2023/10/27 01:56:35;;;;;;;43.58;23.17;;;11.90;99.90;;;;;;5020481;28;20033;-85
2023/10/27 01:59:00;;;;;;;41.42;23.75;;;11.80;99.90;;;;;;5020172;28;20033;-82
2023/10/27 02:01:26;;;;;;;41.50;22.48;;;11.90;99.90;;;;;;5019900;28;20052;-83
2023/10/27 02:03:52;;;;;;;39.53;22.20;;;11.90;99.90;;;;;;5021743;28;20562;-83
2023/10/27 02:06:26;;;;;;;45.50;23.65;;;11.90;99.90;;;;;;5019492;28;20038;-83
2023/10/27 02:08:52;;;;;;;29.88;15.93;;;11.90;99.90;;;;;;5020619;28;20120;-83
2023/10/27 02:11:18;;;;;;;36.53;21.45;;;11.90;99.90;;;;;;5019907;28;20041;-83
2023/10/27 02:13:44;;;;;;;39.30;21.63;;;11.90;99.90;;;;;;5021850;28;20056;-83
2023/10/27 02:16:10;;;;;;;39.90;22.30;;;11.90;99.90;;;;;;5023688;28;20018;-84
2023/10/27 02:18:36;;;;;;;42.92;24.00;;;11.80;99.90;;;;;;5008038;28;20505;-84
2023/10/27 02:21:01;;;;;;;42.90;23.45;;;11.90;99.90;;;;;;5024585;28;20037;-84
2023/10/27 02:23:27;;;;;;;45.05;23.40;;;11.90;99.90;;;;;;5023571;28;20104;-84
2023/10/27 02:25:54;;;;;;;39.63;22.20;;;11.90;99.90;;;;;;5024191;28;20028;-84
2023/10/27 02:28:20;;;;;;;45.47;22.85;;;11.90;99.90;;;;;;5023943;28;20026;-83
2023/10/27 02:30:46;;;;;;;39.28;21.73;;;11.90;99.90;;;;;;5023751;28;20065;-84
2023/10/27 02:33:13;;;;;;;44.95;22.05;;;11.90;99.90;;;;;;5023439;28;20022;-83
2023/10/27 02:35:38;;;;;;;41.28;23.35;;;11.90;99.90;;;;;;5023983;28;20029;-84
2023/10/27 02:38:04;;;;;;;41.75;22.52;;;11.90;99.90;;;;;;5024543;28;20022;-84
2023/10/27 02:40:31;;;;;;;37.92;21.10;;;11.90;99.90;;;;;;5023725;28;20049;-84
2023/10/27 02:42:57;;;;;;;41.63;23.48;;;11.90;99.90;;;;;;5026039;28;20025;-84
2023/10/27 02:45:22;;;;;;;45.15;22.30;;;11.90;99.90;;;;;;5025105;28;20037;-84
2023/10/27 02:47:48;;;;;;;39.08;22.63;;;11.90;99.90;;;;;;5025855;28;20473;-84
2023/10/27 02:50:14;;;;;;;36.85;21.25;;;11.90;99.90;;;;;;5025884;28;20026;-84
2023/10/27 02:52:40;;;;;;;37.63;20.42;;;11.90;99.90;;;;;;5026327;28;20026;-84
2023/10/27 02:55:06;;;;;;;35.95;19.77;;;11.90;99.90;;;;;;5026885;28;20109;-85
2023/10/27 02:57:32;;;;;;;37.80;20.45;;;12.00;99.90;;;;;;5025706;28;20026;-85
2023/10/27 02:59:57;;;;;;;37.08;19.05;;;11.90;99.90;;;;;;5023738;28;20022;-83
2023/10/27 03:02:24;;;;;;;38.60;20.85;;;12.00;99.90;;;;;;5022915;28;20014;-84
2023/10/27 03:04:51;;;;;;;35.38;19.88;;;12.00;99.90;;;;;;5023613;28;20098;-82
2023/10/27 03:07:17;;;;;;;35.58;19.85;;;12.00;99.90;;;;;;5023014;28;20034;-85
2023/10/27 03:09:43;;;;;;;32.70;20.27;;;12.00;99.90;;;;;;5007270;28;20093;-84
2023/10/27 03:12:09;;;;;;;35.40;20.10;;;12.00;99.90;;;;;;5023417;28;20053;-84
2023/10/27 03:14:34;;;;;;;35.22;20.40;;;12.00;99.90;;;;;;5022368;28;20022;-84
2023/10/27 03:17:00;;;;;;;33.58;18.42;;;11.90;99.90;;;;;;5023627;28;20053;-84
2023/10/27 03:19:26;;;;;;;31.83;18.42;;;11.90;99.90;;;;;;5022550;28;20045;-84
2023/10/27 03:21:51;;;;;;;33.97;18.48;;;11.90;99.90;;;;;;5023409;28;20446;-84
2023/10/27 03:24:17;;;;;;;34.10;18.38;;;11.90;99.90;;;;;;5022078;28;20037;-84
2023/10/27 03:26:44;;;;;;;37.85;19.20;;;11.90;99.90;;;;;;5023028;28;20179;-85
2023/10/27 03:29:10;;;;;;;33.17;19.05;;;11.90;99.90;;;;;;5022665;28;20028;-84
2023/10/27 03:31:35;;;;;;;37.38;19.83;;;12.00;99.90;;;;;;5022460;28;20057;-85
2023/10/27 03:34:01;;;;;;;36.35;20.33;;;12.00;99.90;;;;;;5023359;28;20061;-84
2023/10/27 03:36:27;;;;;;;33.53;19.00;;;12.00;99.90;;;;;;5022541;28;20048;-85
2023/10/27 03:38:52;;;;;;;34.67;18.52;;;12.00;99.90;;;;;;5023033;28;20045;-84
2023/10/27 03:41:18;;;;;;;36.67;19.67;;;12.00;99.90;;;;;;5021904;28;20038;-84
2023/10/27 03:43:44;;;;;;;37.65;20.10;;;12.00;99.90;;;;;;5022468;28;20028;-86
2023/10/27 03:46:10;;;;;;;33.28;19.23;;;12.00;99.90;;;;;;5022634;28;20058;-86
2023/10/27 03:48:36;;;;;;;33.95;18.85;;;12.00;99.90;;;;;;5023184;28;20014;-84
2023/10/27 03:51:05;;;;;;;35.47;19.67;;;12.00;99.90;;;;;;5024223;28;20041;-85
2023/10/27 03:53:31;;;;;;;36.75;20.00;;;12.00;99.90;;;;;;5021937;28;20022;-85
2023/10/27 03:55:57;;;;;;;35.67;18.92;;;12.00;99.90;;;;;;5022721;28;20014;-84
2023/10/27 03:58:22;;;;;;;34.85;19.75;;;12.00;99.90;;;;;;5021849;28;20026;-84
2023/10/27 04:00:48;;;;;;;35.97;19.75;;;11.90;99.90;;;;;;5022434;28;20046;-84
2023/10/27 04:03:14;;;;;;;37.60;19.48;;;12.00;99.90;;;;;;5022190;28;20082;-84
2023/10/27 04:05:40;;;;;;;30.52;16.67;;;11.90;99.90;;;;;;5022663;28;20038;-84
2023/10/27 04:08:06;;;;;;;36.25;17.30;;;12.00;99.90;;;;;;5006457;28;20377;-84
2023/10/27 04:10:33;;;;;;;32.72;18.10;;;12.00;99.90;;;;;;5021771;28;20033;-84
2023/10/27 04:12:59;;;;;;;34.25;18.38;;;12.00;99.90;;;;;;5021883;28;20026;-83
2023/10/27 04:15:25;;;;;;;30.90;17.60;;;11.90;99.90;;;;;;5021437;28;20026;-84
2023/10/27 04:17:53;;;;;;;34.00;18.17;;;11.90;99.90;;;;;;5021943;28;20022;-84
2023/10/27 04:20:19;;;;;;;30.33;17.65;;;11.90;99.90;;;;;;5021674;28;20019;-84
2023/10/27 04:22:44;;;;;;;32.90;17.80;;;12.00;99.90;;;;;;5022156;28;20018;-84
2023/10/27 04:25:10;;;;;;;28.85;16.38;;;11.90;99.90;;;;;;5021803;28;20110;-83
2023/10/27 04:27:36;;;;;;;30.73;16.40;;;12.00;99.90;;;;;;5021446;28;20108;-83
2023/10/27 04:30:07;;;;;;;30.35;17.10;;;12.00;99.90;;;;;;5022060;28;20022;-83
2023/10/27 04:32:39;;;;;;;31.40;17.23;;;12.00;99.90;;;;;;5021410;28;20025;-83
2023/10/27 04:35:05;;;;;;;30.88;16.77;;;11.90;99.90;;;;;;5021586;28;20034;-83
2023/10/27 04:37:32;;;;;;;28.88;15.73;;;11.90;99.90;;;;;;5020585;28;20022;-83
2023/10/27 04:39:58;;;;;;;26.90;15.23;;;12.00;99.90;;;;;;5021325;28;20032;-84
2023/10/27 04:42:25;;;;;;;26.23;14.38;;;12.00;99.90;;;;;;5023058;28;20049;-84
2023/10/27 04:44:50;;;;;;;30.08;15.75;;;12.00;99.90;;;;;;5021269;28;20026;-84
2023/10/27 04:47:16;;;;;;;28.80;15.38;;;11.90;99.90;;;;;;5021930;28;20014;-84
2023/10/27 04:49:42;;;;;;;31.33;16.40;;;11.90;99.90;;;;;;5021121;28;20029;-84
2023/10/27 04:52:08;;;;;;;27.58;15.13;;;11.90;99.90;;;;;;5021534;28;20037;-83
2023/10/27 04:54:36;;;;;;;25.63;14.57;;;12.00;99.90;;;;;;5020614;28;20037;-82
2023/10/27 04:57:05;;;;;;;29.25;15.50;;;12.00;99.90;;;;;;5021014;28;20022;-82
2023/10/27 04:59:32;;;;;;;23.75;13.63;;;12.00;99.90;;;;;;5005694;28;20094;-85
2023/10/27 05:01:58;;;;;;;27.05;14.30;;;12.00;99.90;;;;;;5020960;28;20041;-82
2023/10/27 05:04:25;;;;;;;25.63;14.52;;;12.00;99.90;;;;;;5021692;28;20026;-83
2023/10/27 05:06:51;;;;;;;22.55;12.93;;;12.00;99.90;;;;;;5020569;28;20177;-82
2023/10/27 05:09:18;;;;;;;25.10;13.93;;;12.00;99.90;;;;;;5021048;28;20026;-84
2023/10/27 05:11:49;;;;;;;23.77;12.98;;;12.00;99.90;;;;;;5021071;28;20022;-84
2023/10/27 05:14:14;;;;;;;24.23;12.93;;;12.00;99.90;;;;;;5020694;28;20449;-84
2023/10/27 05:16:41;;;;;;;20.92;12.52;;;12.00;99.90;;;;;;5021332;28;20048;-83
2023/10/27 05:19:07;;;;;;;21.10;11.25;;;12.00;99.90;;;;;;5020702;28;20057;-84
2023/10/27 05:21:33;;;;;;;19.48;11.88;;;12.00;99.90;;;;;;5021208;28;20033;-83
2023/10/27 05:23:59;;;;;;;20.85;11.38;;;12.00;99.90;;;;;;5019965;28;20025;-83
2023/10/27 05:26:25;;;;;;;20.85;11.75;;;12.00;99.90;;;;;;5020879;28;20042;-84
2023/10/27 05:28:52;;;;;;;20.73;11.85;;;12.00;99.90;;;;;;5020392;28;20532;-84
2023/10/27 05:31:17;;;;;;;20.85;12.05;;;12.00;99.90;;;;;;5022346;28;20033;-83
2023/10/27 05:33:43;;;;;;;20.63;11.75;;;12.00;99.90;;;;;;5020977;28;20034;-83
2023/10/27 05:36:10;;;;;;;20.50;12.25;;;12.00;99.90;;;;;;5020182;28;20125;-83
2023/10/27 05:38:38;;;;;;;19.85;12.35;;;12.00;99.90;;;;;;5020358;28;20029;-84
2023/10/27 05:41:05;;;;;;;21.38;11.48;;;12.00;99.90;;;;;;5021661;28;20058;-83
2023/10/27 05:43:31;;;;;;;18.52;10.25;;;12.00;99.90;;;;;;5021956;28;20038;-84
2023/10/27 05:45:56;;;;;;;18.85;10.63;;;12.00;99.90;;;;;;5019965;28;20098;-84
2023/10/27 05:48:22;;;;;;;20.83;10.57;;;12.00;99.90;;;;;;5020558;28;20030;-84
2023/10/27 05:50:48;;;;;;;18.77;10.43;;;12.00;99.90;;;;;;5020859;28;20105;-83
2023/10/27 05:53:15;;;;;;;16.48;9.35;;;12.00;99.90;;;;;;5020523;28;20026;-84
2023/10/27 05:55:42;;;;;;;14.18;8.25;;;12.00;99.90;;;;;;5029717;28;20018;-84
2023/10/27 05:58:07;;;;;;;13.82;8.23;;;12.00;99.90;;;;;;5029397;28;20356;-84
2023/10/27 06:00:33;;;;;;;15.15;8.65;;;12.00;99.90;;;;;;5020539;28;20044;-84
2023/10/27 06:02:59;;;;;;;13.20;7.30;;;12.00;99.90;;;;;;5038548;28;20047;-84
2023/10/27 06:05:25;;;;;;;12.70;7.47;;;12.00;99.90;;;;;;5019298;28;20045;-84
2023/10/27 06:07:51;;;;;;;11.93;6.38;;;12.00;99.90;;;;;;5038979;28;20021;-83
2023/10/27 06:10:18;;;;;;;12.35;7.07;;;12.00;99.90;;;;;;5039562;28;20051;-84
2023/10/27 06:12:43;;;;;;;12.15;6.78;;;12.00;99.90;;;;;;5039929;28;20108;-84
2023/10/27 06:15:09;;;;;;;11.57;6.88;;;12.00;99.90;;;;;;5038495;28;20040;-84
2023/10/27 06:17:35;;;;;;;11.57;6.50;;;11.90;99.90;;;;;;5023569;28;20030;-84
2023/10/27 06:20:02;;;;;;;11.32;6.35;;;11.90;99.90;;;;;;5038797;28;20018;-84
2023/10/27 06:22:29;;;;;;;12.20;6.78;;;12.00;99.90;;;;;;5038513;28;20181;-84
2023/10/27 06:24:55;;;;;;;10.60;6.43;;;11.90;99.90;;;;;;5040432;28;20053;-84
2023/10/27 06:27:20;;;;;;;10.48;5.82;;;12.00;99.90;;;;;;5023258;28;20026;-84
2023/10/27 06:29:46;;;;;;;11.60;6.57;;;11.90;99.90;;;;;;5041191;28;20018;-83
2023/10/27 06:32:12;;;;;;;11.40;6.43;;;11.90;99.90;;;;;;5039340;28;20026;-85
2023/10/27 06:34:38;;;;;;;12.65;6.93;;;11.90;99.90;;;;;;5040813;28;20051;-85
2023/10/27 06:37:05;;;;;;;11.48;6.10;;;11.90;99.90;;;;;;5041093;28;20038;-84
2023/10/27 06:39:31;;;;;;;10.77;6.28;;;11.90;99.90;;;;;;5026583;28;20021;-86
2023/10/27 06:41:58;;;;;;;11.93;6.53;;;11.90;99.90;;;;;;5041363;28;20065;-85
2023/10/27 06:44:24;;;;;;;10.52;6.38;;;11.90;99.90;;;;;;5039665;28;20029;-85
2023/10/27 06:46:50;;;;;;;11.88;6.90;;;11.90;99.90;;;;;;5040773;28;20082;-85
2023/10/27 06:49:16;;;;;;;11.70;6.65;;;11.90;99.90;;;;;;5039261;28;20025;-85
2023/10/27 06:51:42;;;;;;;11.43;6.20;;;11.90;99.90;;;;;;5043178;28;20034;-85
2023/10/27 06:54:07;;;;;;;13.43;6.65;;;11.90;99.90;;;;;;5042804;28;20089;-84
2023/10/27 06:56:34;;;;;;;12.05;6.70;;;11.90;99.90;;;;;;5042422;28;20021;-84
2023/10/27 06:59:00;;;;;;;12.02;6.40;;;11.90;99.90;;;;;;5041301;28;20026;-84
2023/10/27 07:01:25;;;;;;;12.48;7.07;;;11.90;99.90;;;;;;5043580;28;20036;-83
2023/10/27 07:03:51;;;;;;;11.32;6.38;;;11.90;99.90;;;;;;5043792;28;20021;-83
2023/10/27 07:06:20;;;;;;;12.63;6.70;;;12.00;99.90;;;;;;5042178;28;20043;-85
2023/10/27 07:08:45;;;;;;;13.07;6.82;;;11.90;99.90;;;;;;5043089;28;20093;-85
2023/10/27 07:11:11;;;;;;;13.50;7.55;;;11.90;99.90;;;;;;5043332;28;20009;-85
2023/10/27 07:13:37;;;;;;;12.80;7.38;;;12.00;99.90;;;;;;5042447;28;20018;-85
2023/10/27 07:16:04;;;;;;;13.40;7.70;;;12.00;99.90;;;;;;5042422;28;20113;-84
2023/10/27 07:18:30;;;;;;;11.52;6.97;;;11.90;99.90;;;;;;5042631;28;20040;-85
2023/10/27 07:20:56;;;;;;;11.73;6.90;;;12.00;99.90;;;;;;5042587;28;20026;-84
2023/10/27 07:23:25;;;;;;;11.65;6.63;;;12.00;99.90;;;;;;5042736;28;20013;-84
2023/10/27 07:25:51;;;;;;;11.20;6.35;;;12.00;99.90;;;;;;5043358;28;20120;-84
2023/10/27 07:28:17;;;;;;;12.70;6.45;;;12.00;99.90;;;;;;5042275;28;20029;-83
2023/10/27 07:30:43;;;;;;;12.52;7.18;;;12.00;99.90;;;;;;5043193;28;20034;-83
2023/10/27 07:33:10;;;;;;;12.18;6.78;;;12.00;99.90;;;;;;5043611;28;20021;-85
2023/10/27 07:35:35;;;;;;;11.40;7.13;;;12.10;99.90;;;;;;5040304;28;20470;-85
2023/10/27 07:38:01;;;;;;;11.95;7.22;;;12.10;99.90;;;;;;5042632;28;20036;-85
2023/10/27 07:40:27;;;;;;;12.63;7.55;;;12.10;99.90;;;;;;5041513;28;20029;-85
2023/10/27 07:42:57;;;;;;;11.75;7.28;;;12.10;99.90;;;;;;5043046;28;20058;-85
2023/10/27 07:45:24;;;;;;;13.27;7.30;;;12.10;99.90;;;;;;5041918;28;20041;-85
2023/10/27 07:47:49;;;;;;;11.13;6.88;;;12.10;99.90;;;;;;5042001;28;20017;-85
2023/10/27 07:50:16;;;;;;;11.63;7.22;;;12.10;99.90;;;;;;5042079;28;20029;-85
2023/10/27 07:52:42;;;;;;;11.35;6.85;;;12.20;99.90;;;;;;5042809;28;20097;-85
2023/10/27 07:55:08;;;;;;;10.45;6.60;;;12.20;99.90;;;;;;5043796;28;20128;-85
2023/10/27 07:57:34;;;;;;;10.48;6.07;;;12.20;99.90;;;;;;5042313;28;20020;-85
2023/10/27 08:00:02;;;;;;;11.45;6.95;;;12.20;99.90;;;;;;5042929;28;20017;-85
2023/10/27 08:02:28;;;;;;;10.68;6.60;;;12.20;99.90;;;;;;5041601;28;20093;-85
2023/10/27 08:04:54;;;;;;;11.93;7.18;;;12.20;99.90;;;;;;5042515;28;20459;-83
2023/10/27 08:07:20;;;;;;;12.52;7.47;;;12.20;99.90;;;;;;5042515;28;20072;-85
2023/10/27 08:09:46;;;;;;;12.15;7.75;;;12.30;99.90;;;;;;5042192;28;20585;-85
2023/10/27 08:12:12;;;;;;;11.63;7.60;;;12.30;99.90;;;;;;5042307;28;20099;-85
2023/10/27 08:14:37;;;;;;;10.68;7.45;;;12.30;99.90;;;;;;5041489;28;20028;-85
2023/10/27 08:17:03;;;;;;;11.57;7.47;;;12.30;99.90;;;;;;5042144;28;20026;-85
2023/10/27 08:19:29;;;;;;;12.60;8.05;;;12.40;99.90;;;;;;5041758;28;20051;-85
2023/10/27 08:21:55;;;;;;;12.32;7.32;;;12.40;99.90;;;;;;5041955;28;20049;-84
2023/10/27 08:24:20;;;;;;;11.60;7.68;;;12.40;99.90;;;;;;5041521;28;20025;-85
2023/10/27 08:26:46;;;;;;;11.95;7.50;;;12.40;99.90;;;;;;5042188;28;20044;-85
2023/10/27 08:29:12;;;;;;;13.70;8.57;;;12.40;99.90;;;;;;5041715;28;20107;-84
2023/10/27 08:31:38;;;;;;;13.93;8.68;;;12.30;99.90;;;;;;5042794;28;20029;-85
2023/10/27 08:34:05;;;;;;;13.55;8.52;;;12.40;99.90;;;;;;5042160;28;20033;-85
2023/10/27 08:36:31;;;;;;;12.05;8.05;;;12.40;99.90;;;;;;5041223;28;20562;-85
2023/10/27 08:38:57;;;;;;;12.50;8.30;;;12.40;99.90;;;;;;5042275;28;20021;-85
2023/10/27 08:41:26;;;;;;;13.85;8.38;;;12.40;99.90;;;;;;5040165;28;20072;-85
2023/10/27 08:43:55;;;;;;;12.65;8.10;;;12.40;99.90;;;;;;5030594;28;20462;-85
2023/10/27 08:46:22;;;;;;;13.07;8.43;;;12.40;99.90;;;;;;5025036;28;20412;-85
2023/10/27 08:48:48;;;;;;;12.85;7.90;;;12.40;99.90;;;;;;5030454;28;20544;-85
2023/10/27 08:51:15;;;;;;;11.40;7.20;;;12.40;99.90;;;;;;5030858;28;20013;-85
2023/10/27 08:53:41;;;;;;;12.20;7.43;;;12.40;99.90;;;;;;5034251;28;20020;-85
2023/10/27 08:56:13;;;;;;;14.15;8.40;;;12.40;99.90;;;;;;5026104;28;20072;-86
2023/10/27 08:58:58;;;;;;;13.32;8.60;;;12.40;99.90;;;;;;5033957;28;20049;-86
2023/10/27 09:01:26;;;;;;;10.90;7.18;;;12.40;99.90;;;;;;5024660;28;20022;-85
2023/10/27 09:04:10;;;;;;;12.77;8.05;;;12.40;99.90;;;;;;5032566;28;20382;-85
2023/10/27 09:06:37;;;;;;;12.93;7.70;;;12.40;99.90;;;;;;5030576;28;20034;-85
2023/10/27 09:09:05;;;;;;;14.32;8.77;;;12.30;99.90;;;;;;5026001;28;20584;-85
2023/10/27 09:11:43;;;;;;;12.70;7.97;;;12.30;99.90;;;;;;5029345;28;20041;-85
2023/10/27 09:14:22;;;;;;;12.85;7.50;;;12.40;99.90;;;;;;5046116;28;20028;-86
2023/10/27 09:16:49;;;;;;;14.15;8.18;;;12.30;99.90;;;;;;5022540;28;20397;-85
2023/10/27 09:19:24;;;;;;;13.55;8.63;;;12.30;99.90;;;;;;5023001;28;20024;-85
2023/10/27 09:21:52;;;;;;;12.05;7.97;;;12.30;99.90;;;;;;5029903;28;20117;-85
2023/10/27 09:24:29;;;;;;;13.25;8.23;;;12.30;99.90;;;;;;5021783;28;20021;-85
2023/10/27 09:26:57;;;;;;;12.65;8.10;;;12.40;99.90;;;;;;5028623;28;20036;-85
2023/10/27 09:29:23;;;;;;;12.55;8.32;;;12.40;99.90;;;;;;5040862;28;20033;-85
2023/10/27 09:31:53;;;;;;;11.43;7.25;;;12.40;99.90;;;;;;5040059;28;20109;-85
2023/10/27 09:34:26;;;;;;;13.05;7.90;;;12.40;99.90;;;;;;5041010;28;20068;-85
2023/10/27 09:36:54;;;;;;;12.55;7.28;;;12.40;99.90;;;;;;5039840;28;20021;-85
2023/10/27 09:39:24;;;;;;;13.35;8.40;;;12.50;99.90;;;;;;5040821;28;20025;-85
2023/10/27 09:41:58;;;;;;;12.35;8.05;;;12.50;99.90;;;;;;5039934;28;20053;-85
2023/10/27 09:44:48;;;;;;;11.07;7.20;;;12.60;99.90;;;;;;5040036;28;20041;-86
2023/10/27 09:47:33;;;;;;;12.32;7.82;;;12.60;99.90;;;;;;5041589;28;20440;-86
2023/10/27 09:50:06;;;;;;;11.30;7.53;;;12.60;99.90;;;;;;5040000;28;20102;-86
2023/10/27 09:52:33;;;;;;;12.48;7.65;;;12.70;99.90;;;;;;5040278;28;20022;-86
2023/10/27 09:55:00;;;;;;;11.68;7.85;;;12.70;99.90;;;;;;5040498;28;20042;-85
2023/10/27 09:57:27;;;;;;;9.18;6.05;;;12.80;99.90;;;;;;5041546;28;20022;-86
2023/10/27 09:59:55;;;;;;;10.02;6.45;;;12.80;99.90;;;;;;5041141;28;20033;-86
2023/10/27 10:02:25;;;;;;;10.35;6.55;;;12.80;99.90;;;;;;5055835;28;20027;-85
2023/10/27 10:04:50;;;;;;;10.18;6.40;;;12.90;99.90;;;;;;5040460;28;20091;-86
2023/10/27 10:07:31;;;;;;;9.65;5.97;;;12.90;99.90;;;;;;5039997;28;20418;-86
2023/10/27 10:09:58;;;;;;;9.27;5.88;;;12.90;99.90;;;;;;5040182;28;20025;-86
2023/10/27 10:12:24;;;;;;;8.30;5.10;;;12.90;99.90;;;;;;5040012;28;20025;-85
2023/10/27 10:14:50;;;;;;;9.35;5.57;;;12.90;99.90;;;;;;5038845;28;20033;-86
2023/10/27 10:17:41;;;;;;;8.75;5.72;;;12.90;99.90;;;;;;5042443;28;20064;-85
2023/10/27 10:20:09;;;;;;;9.30;5.47;;;12.90;99.90;;;;;;5039558;28;20010;-86
2023/10/27 10:22:41;;;;;;;9.05;5.50;;;12.90;99.90;;;;;;5040065;28;20036;-85
2023/10/27 10:25:18;;;;;;;7.57;5.13;;;13.00;99.90;;;;;;5040372;28;20038;-86
2023/10/27 10:28:09;;;;;;;9.38;5.60;;;13.00;99.90;;;;;;5039324;28;20025;-86
2023/10/27 10:30:40;;;;;;;7.85;5.15;;;13.10;99.90;;;;;;5040281;28;20026;-86
2023/10/27 10:33:27;;;;;;;8.15;5.13;;;13.10;99.90;;;;;;5039818;28;20034;-85
2023/10/27 10:36:22;;;;;;;9.02;5.57;;;13.10;99.90;;;;;;5043704;28;20030;-86
2023/10/27 10:38:53;;;;;;;8.23;5.07;;;13.10;99.90;;;;;;5044427;28;20128;-84
2023/10/27 10:41:19;;;;;;;7.78;4.50;;;13.10;99.90;;;;;;5042827;28;20100;-84
2023/10/27 10:44:05;;;;;;;9.85;5.32;;;13.10;99.90;;;;;;5043887;28;20489;-84
2023/10/27 10:46:31;;;;;;;7.57;4.95;;;13.10;99.90;;;;;;5043765;28;20041;-83
2023/10/27 10:48:56;;;;;;;8.10;5.63;;;13.10;99.90;;;;;;5042993;28;20028;-83
2023/10/27 10:51:30;;;;;;;7.90;5.32;;;13.10;99.90;;;;;;5048296;28;20101;-83
2023/10/27 10:53:56;;;;;;;9.70;5.97;;;13.10;99.90;;;;;;5048211;28;20540;-84
2023/10/27 10:56:23;;;;;;;9.20;5.25;;;13.20;99.90;;;;;;5044267;28;20031;-83
2023/10/27 10:58:49;;;;;;;7.80;4.88;;;13.20;99.90;;;;;;5042002;28;20021;-83
2023/10/27 11:01:19;;;;;;;8.20;5.05;;;13.20;99.90;;;;;;5032517;28;20042;-83
2023/10/27 11:03:47;;;;;;;8.50;5.15;;;13.20;99.90;;;;;;5042662;28;20401;-83
2023/10/27 11:06:13;;;;;;;8.73;5.18;;;13.20;99.90;;;;;;5038967;28;20060;-84
2023/10/27 11:08:39;;;;;;;8.82;5.60;;;13.20;99.90;;;;;;5043651;28;20416;-83
2023/10/27 11:11:16;;;;;;;8.80;5.28;;;13.30;99.90;;;;;;5042068;28;20081;-83
2023/10/27 11:13:43;;;;;;;9.23;5.50;;;13.30;99.90;;;;;;5040736;28;20014;-85
2023/10/27 11:16:18;;;;;;;7.30;4.65;;;13.30;99.90;;;;;;5042687;28;20029;-85
2023/10/27 11:18:45;;;;;;;8.40;5.30;;;13.30;99.90;;;;;;5037407;28;20029;-85
2023/10/27 11:21:18;;;;;;;8.38;5.03;;;13.40;99.90;;;;;;5030579;28;20048;-85
2023/10/27 11:23:45;;;;;;;7.82;4.90;;;13.40;99.90;;;;;;5042125;28;20377;-85
2023/10/27 11:26:11;;;;;;;7.65;4.72;;;13.40;99.90;;;;;;5042234;28;20038;-85
2023/10/27 11:28:41;;;;;;;7.80;4.53;;;13.40;99.90;;;;;;5042082;28;20032;-85
2023/10/27 11:31:23;;;;;;;7.22;4.55;;;13.50;99.90;;;;;;5029922;28;20181;-86
2023/10/27 11:33:58;;;;;;;5.68;3.55;;;13.40;99.90;;;;;;5026326;28;20157;-85
2023/10/27 11:36:25;;;;;;;5.53;3.40;;;13.50;99.90;;;;;;5040549;28;20033;-85
2023/10/27 11:38:51;;;;;;;6.05;3.63;;;13.40;99.90;;;;;;5042164;28;20473;-85
2023/10/27 11:41:17;;;;;;;6.63;3.95;;;13.50;99.90;;;;;;5040827;28;20061;-85
2023/10/27 11:43:43;;;;;;;5.32;3.22;;;13.50;99.90;;;;;;5040754;28;20018;-85
2023/10/27 11:46:13;;;;;;;5.13;3.13;;;13.50;99.90;;;;;;5040401;28;20048;-85
2023/10/27 11:48:39;;;;;;;5.53;3.35;;;13.50;99.90;;;;;;5039333;28;20475;-84
2023/10/27 11:51:06;;;;;;;6.20;3.25;;;13.50;99.90;;;;;;5041385;28;20029;-85
2023/10/27 11:53:34;;;;;;;4.82;2.85;;;13.60;99.90;;;;;;5036619;28;20024;-85
2023/10/27 11:56:00;;;;;;;4.65;2.85;;;13.60;99.90;;;;;;5034477;28;20026;-85
2023/10/27 11:58:26;;;;;;;5.38;3.22;;;13.60;99.90;;;;;;5038886;28;20013;-83
2023/10/27 12:00:52;;;;;;;6.05;3.53;;;13.60;99.90;;;;;;5040116;28;20024;-85
2023/10/27 12:03:17;;;;;;;4.32;2.67;;;13.70;99.90;;;;;;5031591;28;20014;-85
2023/10/27 12:05:43;;;;;;;5.72;3.17;;;13.70;99.90;;;;;;5031395;28;20030;-85
2023/10/27 12:08:09;;;;;;;4.38;2.40;;;13.70;99.90;;;;;;5041761;28;20367;-85
2023/10/27 12:10:35;;;;;;;4.43;2.00;;;13.70;99.90;;;;;;5037565;28;20559;-85
2023/10/27 12:13:06;;;;;;;4.38;2.53;;;13.70;99.90;;;;;;5043829;28;20021;-86
2023/10/27 12:15:33;;;;;;;4.05;2.25;;;13.70;99.90;;;;;;5041223;28;20017;-85
2023/10/27 12:17:59;;;;;;;4.65;2.75;;;13.70;99.90;;;;;;5038889;28;20028;-86
2023/10/27 12:20:28;;;;;;;4.22;2.50;;;13.60;99.90;;;;;;5040953;28;20516;-86
2023/10/27 12:22:55;;;;;;;4.45;2.45;;;13.70;99.90;;;;;;5038917;28;20013;-86
2023/10/27 12:25:21;;;;;;;5.55;3.50;;;13.60;99.90;;;;;;5038546;28;20056;-85
2023/10/27 12:27:47;;;;;;;3.40;1.80;;;13.60;99.90;;;;;;5037547;28;20030;-85
2023/10/27 12:30:15;;;;;;;3.38;2.13;;;13.60;99.90;;;;;;5041734;28;20245;-86
2023/10/27 12:32:42;;;;;;;3.63;1.92;;;13.60;99.90;;;;;;5037412;28;20036;-85
2023/10/27 12:35:08;;;;;;;4.32;1.92;;;13.60;99.90;;;;;;5041394;28;20038;-85